sensor_id;sensor_type;location;lat;lon;timestamp;pressure;altitude;pressure_sealevel;temperature;humidity
10688;BME280;5392;42.688;23.298;2023-12-29T00:01:55;95540.28;;;1.97;80.37
10688;BME280;5392;42.688;23.298;2023-12-29T00:04:21;95540.81;;;2.01;80.33
10688;BME280;5392;42.688;23.298;2023-12-29T00:06:46;95543.91;;;1.95;81.31
10688;BME280;5392;42.688;23.298;2023-12-29T00:09:12;95536.53;;;1.92;80.91
10688;BME280;5392;42.688;23.298;2023-12-29T00:11:39;95538.94;;;1.93;80.52
10688;BME280;5392;42.688;23.298;2023-12-29T00:14:05;95536.13;;;1.87;81.37
10688;BME280;5392;42.688;23.298;2023-12-29T00:16:30;95533.69;;;1.85;81.38
10688;BME280;5392;42.688;23.298;2023-12-29T00:18:56;95525.16;;;1.86;81.46
10688;BME280;5392;42.688;23.298;2023-12-29T00:21:21;95537.72;;;1.88;80.64
10688;BME280;5392;42.688;23.298;2023-12-29T00:23:47;95544.69;;;1.86;80.89
10688;BME280;5392;42.688;23.298;2023-12-29T00:26:16;95543.09;;;1.85;80.86
10688;BME280;5392;42.688;23.298;2023-12-29T00:28:42;95541.31;;;1.76;81.30
10688;BME280;5392;42.688;23.298;2023-12-29T00:31:08;95535.16;;;1.69;81.36
10688;BME280;5392;42.688;23.298;2023-12-29T00:33:33;95532.59;;;1.69;82.24
10688;BME280;5392;42.688;23.298;2023-12-29T00:35:59;95529.63;;;1.64;81.72
10688;BME280;5392;42.688;23.298;2023-12-29T00:38:26;95534.63;;;1.65;81.09
10688;BME280;5392;42.688;23.298;2023-12-29T00:40:52;95530.78;;;1.40;83.24
10688;BME280;5392;42.688;23.298;2023-12-29T00:43:17;95530.19;;;1.27;83.65
10688;BME280;5392;42.688;23.298;2023-12-29T00:45:43;95520.41;;;1.23;84.14
10688;BME280;5392;42.688;23.298;2023-12-29T00:48:08;95521.78;;;1.36;84.25
10688;BME280;5392;42.688;23.298;2023-12-29T00:50:34;95519.94;;;1.38;83.51
10688;BME280;5392;42.688;23.298;2023-12-29T00:53:00;95520.25;;;1.45;82.57
10688;BME280;5392;42.688;23.298;2023-12-29T00:55:25;95526.50;;;1.41;84.04
10688;BME280;5392;42.688;23.298;2023-12-29T00:57:51;95532.22;;;1.33;82.06
10688;BME280;5392;42.688;23.298;2023-12-29T01:00:16;95523.66;;;1.25;82.61
10688;BME280;5392;42.688;23.298;2023-12-29T01:02:42;95514.16;;;1.27;83.22
10688;BME280;5392;42.688;23.298;2023-12-29T01:05:07;95523.38;;;1.28;83.32
10688;BME280;5392;42.688;23.298;2023-12-29T01:07:33;95517.38;;;1.29;83.03
10688;BME280;5392;42.688;23.298;2023-12-29T01:09:58;95515.84;;;1.17;83.54
10688;BME280;5392;42.688;23.298;2023-12-29T01:12:25;95515.31;;;1.23;84.18
10688;BME280;5392;42.688;23.298;2023-12-29T01:14:50;95522.06;;;1.33;83.59
10688;BME280;5392;42.688;23.298;2023-12-29T01:17:16;95528.13;;;1.42;84.06
10688;BME280;5392;42.688;23.298;2023-12-29T01:19:41;95524.09;;;1.39;82.89
10688;BME280;5392;42.688;23.298;2023-12-29T01:22:06;95531.56;;;1.31;83.06
10688;BME280;5392;42.688;23.298;2023-12-29T01:24:32;95527.78;;;1.26;82.92
10688;BME280;5392;42.688;23.298;2023-12-29T01:26:57;95519.06;;;1.19;83.49
10688;BME280;5392;42.688;23.298;2023-12-29T01:29:23;95520.09;;;1.16;83.79
10688;BME280;5392;42.688;23.298;2023-12-29T01:31:48;95522.94;;;0.93;84.71
10688;BME280;5392;42.688;23.298;2023-12-29T01:34:14;95527.50;;;0.99;84.91
10688;BME280;5392;42.688;23.298;2023-12-29T01:36:39;95527.88;;;0.94;84.74
10688;BME280;5392;42.688;23.298;2023-12-29T01:39:05;95526.28;;;0.93;85.22
10688;BME280;5392;42.688;23.298;2023-12-29T01:41:30;95533.41;;;0.99;84.48
10688;BME280;5392;42.688;23.298;2023-12-29T01:46:22;95524.44;;;0.95;84.58
10688;BME280;5392;42.688;23.298;2023-12-29T01:48:48;95521.91;;;0.95;84.77
10688;BME280;5392;42.688;23.298;2023-12-29T01:51:14;95528.78;;;0.84;85.25
10688;BME280;5392;42.688;23.298;2023-12-29T01:53:40;95531.38;;;0.93;84.50
10688;BME280;5392;42.688;23.298;2023-12-29T01:56:06;95522.28;;;0.91;83.93
10688;BME280;5392;42.688;23.298;2023-12-29T01:58:33;95517.41;;;0.78;84.63
10688;BME280;5392;42.688;23.298;2023-12-29T02:01:00;95509.28;;;0.84;84.81
10688;BME280;5392;42.688;23.298;2023-12-29T02:03:26;95510.63;;;0.88;84.19
10688;BME280;5392;42.688;23.298;2023-12-29T02:05:54;95506.75;;;0.84;84.75
10688;BME280;5392;42.688;23.298;2023-12-29T02:08:22;95494.59;;;0.88;84.40
10688;BME280;5392;42.688;23.298;2023-12-29T02:10:48;95502.09;;;0.89;84.45
10688;BME280;5392;42.688;23.298;2023-12-29T02:13:14;95491.00;;;0.90;84.36
10688;BME280;5392;42.688;23.298;2023-12-29T02:15:40;95498.25;;;0.74;84.66
10688;BME280;5392;42.688;23.298;2023-12-29T02:18:06;95490.41;;;0.77;84.22
10688;BME280;5392;42.688;23.298;2023-12-29T02:20:34;95482.19;;;0.64;85.45
10688;BME280;5392;42.688;23.298;2023-12-29T02:23:01;95478.97;;;0.62;86.15
10688;BME280;5392;42.688;23.298;2023-12-29T02:25:27;95480.63;;;0.52;87.62
10688;BME280;5392;42.688;23.298;2023-12-29T02:27:59;95483.69;;;0.66;87.33
10688;BME280;5392;42.688;23.298;2023-12-29T02:32:59;95472.94;;;0.84;86.77
10688;BME280;5392;42.688;23.298;2023-12-29T02:35:34;95469.66;;;0.93;85.32
10688;BME280;5392;42.688;23.298;2023-12-29T02:38:01;95480.63;;;1.03;84.85
10688;BME280;5392;42.688;23.298;2023-12-29T02:40:27;95470.63;;;1.01;84.65
10688;BME280;5392;42.688;23.298;2023-12-29T02:42:53;95471.38;;;0.92;84.69
10688;BME280;5392;42.688;23.298;2023-12-29T02:45:18;95465.63;;;0.90;85.30
10688;BME280;5392;42.688;23.298;2023-12-29T02:47:44;95459.56;;;0.82;85.74
10688;BME280;5392;42.688;23.298;2023-12-29T02:50:11;95456.81;;;0.85;84.58
10688;BME280;5392;42.688;23.298;2023-12-29T02:52:36;95452.88;;;0.81;84.77
10688;BME280;5392;42.688;23.298;2023-12-29T02:55:02;95444.69;;;0.67;84.82
10688;BME280;5392;42.688;23.298;2023-12-29T02:57:28;95456.25;;;0.60;85.41
10688;BME280;5392;42.688;23.298;2023-12-29T02:59:55;95453.19;;;0.57;85.05
10688;BME280;5392;42.688;23.298;2023-12-29T03:02:21;95450.34;;;0.50;85.02
10688;BME280;5392;42.688;23.298;2023-12-29T03:04:47;95445.09;;;0.42;85.64
10688;BME280;5392;42.688;23.298;2023-12-29T03:07:12;95436.91;;;0.39;85.90
10688;BME280;5392;42.688;23.298;2023-12-29T03:09:38;95431.03;;;0.38;85.75
10688;BME280;5392;42.688;23.298;2023-12-29T03:12:04;95426.47;;;0.32;85.97
10688;BME280;5392;42.688;23.298;2023-12-29T03:14:29;95434.88;;;0.33;86.16
10688;BME280;5392;42.688;23.298;2023-12-29T03:16:55;95431.31;;;0.35;86.22
10688;BME280;5392;42.688;23.298;2023-12-29T03:19:20;95428.88;;;0.34;86.37
10688;BME280;5392;42.688;23.298;2023-12-29T03:21:46;95433.03;;;0.35;86.13
10688;BME280;5392;42.688;23.298;2023-12-29T03:24:11;95432.91;;;0.36;86.29
10688;BME280;5392;42.688;23.298;2023-12-29T03:26:37;95433.16;;;0.33;86.07
10688;BME280;5392;42.688;23.298;2023-12-29T03:29:02;95430.19;;;0.28;85.64
10688;BME280;5392;42.688;23.298;2023-12-29T03:31:28;95424.28;;;0.07;86.80
10688;BME280;5392;42.688;23.298;2023-12-29T03:33:53;95420.47;;;0.13;86.58
10688;BME280;5392;42.688;23.298;2023-12-29T03:36:19;95431.78;;;0.09;86.07
10688;BME280;5392;42.688;23.298;2023-12-29T03:38:44;95423.81;;;0.13;86.19
10688;BME280;5392;42.688;23.298;2023-12-29T03:41:10;95426.47;;;0.12;86.39
10688;BME280;5392;42.688;23.298;2023-12-29T03:43:35;95429.66;;;0.14;86.22
10688;BME280;5392;42.688;23.298;2023-12-29T03:46:01;95437.72;;;0.19;86.60
10688;BME280;5392;42.688;23.298;2023-12-29T03:48:26;95443.59;;;0.19;86.35
10688;BME280;5392;42.688;23.298;2023-12-29T03:50:52;95434.69;;;0.25;86.35
10688;BME280;5392;42.688;23.298;2023-12-29T03:53:17;95440.94;;;0.21;85.98
10688;BME280;5392;42.688;23.298;2023-12-29T03:55:44;95442.28;;;0.25;86.01
10688;BME280;5392;42.688;23.298;2023-12-29T03:58:10;95440.03;;;0.22;86.07
10688;BME280;5392;42.688;23.298;2023-12-29T04:00:36;95437.03;;;0.17;85.66
10688;BME280;5392;42.688;23.298;2023-12-29T04:03:02;95441.81;;;0.10;84.99
10688;BME280;5392;42.688;23.298;2023-12-29T04:05:27;95437.66;;;0.09;85.69
10688;BME280;5392;42.688;23.298;2023-12-29T04:07:52;95434.63;;;0.15;85.67
10688;BME280;5392;42.688;23.298;2023-12-29T04:10:18;95433.03;;;0.14;85.72
10688;BME280;5392;42.688;23.298;2023-12-29T04:12:43;95438.75;;;0.16;85.29
10688;BME280;5392;42.688;23.298;2023-12-29T04:15:10;95434.56;;;0.06;85.72
10688;BME280;5392;42.688;23.298;2023-12-29T04:17:35;95438.81;;;0.05;85.35
10688;BME280;5392;42.688;23.298;2023-12-29T04:20:01;95439.94;;;0.12;85.95
10688;BME280;5392;42.688;23.298;2023-12-29T04:22:26;95440.53;;;0.16;85.83
10688;BME280;5392;42.688;23.298;2023-12-29T04:24:52;95433.97;;;0.13;85.70
10688;BME280;5392;42.688;23.298;2023-12-29T04:27:17;95435.91;;;0.10;85.63
10688;BME280;5392;42.688;23.298;2023-12-29T04:29:44;95430.63;;;0.13;85.10
10688;BME280;5392;42.688;23.298;2023-12-29T04:32:10;95426.47;;;0.12;85.25
10688;BME280;5392;42.688;23.298;2023-12-29T04:34:35;95426.81;;;0.07;85.27
10688;BME280;5392;42.688;23.298;2023-12-29T04:37:01;95442.72;;;0.09;85.15
10688;BME280;5392;42.688;23.298;2023-12-29T04:39:26;95442.97;;;0.06;85.33
10688;BME280;5392;42.688;23.298;2023-12-29T04:41:52;95444.25;;;0.00;85.43
10688;BME280;5392;42.688;23.298;2023-12-29T04:44:17;95443.88;;;0.05;85.63
10688;BME280;5392;42.688;23.298;2023-12-29T04:46:43;95450.31;;;0.09;85.80
10688;BME280;5392;42.688;23.298;2023-12-29T04:49:08;95450.22;;;0.11;85.64
10688;BME280;5392;42.688;23.298;2023-12-29T04:51:34;95442.72;;;0.09;85.67
10688;BME280;5392;42.688;23.298;2023-12-29T04:53:59;95446.19;;;0.08;85.83
10688;BME280;5392;42.688;23.298;2023-12-29T04:56:27;95431.34;;;0.04;86.20
10688;BME280;5392;42.688;23.298;2023-12-29T04:58:53;95429.41;;;-0.04;86.46
10688;BME280;5392;42.688;23.298;2023-12-29T05:01:19;95421.81;;;-0.04;86.07
10688;BME280;5392;42.688;23.298;2023-12-29T05:03:44;95430.47;;;-0.07;86.27
10688;BME280;5392;42.688;23.298;2023-12-29T05:06:10;95431.84;;;-0.03;86.04
10688;BME280;5392;42.688;23.298;2023-12-29T05:08:35;95426.19;;;-0.06;86.26
10688;BME280;5392;42.688;23.298;2023-12-29T05:11:01;95430.00;;;-0.01;85.87
10688;BME280;5392;42.688;23.298;2023-12-29T05:13:26;95416.38;;;0.00;85.91
10688;BME280;5392;42.688;23.298;2023-12-29T05:15:52;95417.91;;;-0.08;85.79
10688;BME280;5392;42.688;23.298;2023-12-29T05:18:17;95415.84;;;-0.03;85.68
10688;BME280;5392;42.688;23.298;2023-12-29T05:20:43;95417.44;;;-0.02;85.71
10688;BME280;5392;42.688;23.298;2023-12-29T05:23:08;95422.75;;;-0.05;85.37
10688;BME280;5392;42.688;23.298;2023-12-29T05:25:34;95426.69;;;-0.12;85.21
10688;BME280;5392;42.688;23.298;2023-12-29T05:27:59;95427.66;;;-0.24;85.42
10688;BME280;5392;42.688;23.298;2023-12-29T05:30:25;95428.16;;;-0.30;85.39
10688;BME280;5392;42.688;23.298;2023-12-29T05:32:52;95426.22;;;-0.38;85.32
10688;BME280;5392;42.688;23.298;2023-12-29T05:35:17;95430.03;;;-0.43;85.47
10688;BME280;5392;42.688;23.298;2023-12-29T05:37:43;95423.38;;;-0.55;85.24
10688;BME280;5392;42.688;23.298;2023-12-29T05:40:08;95425.38;;;-0.59;85.43
10688;BME280;5392;42.688;23.298;2023-12-29T05:42:34;95438.94;;;-0.60;85.89
10688;BME280;5392;42.688;23.298;2023-12-29T05:44:59;95428.50;;;-0.78;86.82
10688;BME280;5392;42.688;23.298;2023-12-29T05:47:25;95439.09;;;-0.84;86.99
10688;BME280;5392;42.688;23.298;2023-12-29T05:49:50;95437.63;;;-0.97;88.69
10688;BME280;5392;42.688;23.298;2023-12-29T05:52:16;95435.09;;;-0.97;88.83
10688;BME280;5392;42.688;23.298;2023-12-29T05:54:41;95428.84;;;-0.82;87.43
10688;BME280;5392;42.688;23.298;2023-12-29T05:57:07;95420.72;;;-0.86;87.77
10688;BME280;5392;42.688;23.298;2023-12-29T05:59:32;95421.38;;;-0.73;87.75
10688;BME280;5392;42.688;23.298;2023-12-29T06:01:58;95421.72;;;-0.77;87.40
10688;BME280;5392;42.688;23.298;2023-12-29T06:04:23;95410.34;;;-0.71;87.24
10688;BME280;5392;42.688;23.298;2023-12-29T06:06:48;95430.31;;;-0.57;87.15
10688;BME280;5392;42.688;23.298;2023-12-29T06:09:14;95423.63;;;-0.47;86.83
10688;BME280;5392;42.688;23.298;2023-12-29T06:11:40;95416.69;;;-0.45;86.95
10688;BME280;5392;42.688;23.298;2023-12-29T06:14:06;95416.06;;;-0.38;87.34
10688;BME280;5392;42.688;23.298;2023-12-29T06:16:31;95415.88;;;-0.14;85.74
10688;BME280;5392;42.688;23.298;2023-12-29T06:18:57;95418.63;;;0.15;85.07
10688;BME280;5392;42.688;23.298;2023-12-29T06:21:22;95417.38;;;0.50;86.35
10688;BME280;5392;42.688;23.298;2023-12-29T06:23:48;95420.47;;;0.84;83.69
10688;BME280;5392;42.688;23.298;2023-12-29T06:26:18;95419.63;;;1.14;80.82
10688;BME280;5392;42.688;23.298;2023-12-29T06:28:44;95425.84;;;1.40;81.15
10688;BME280;5392;42.688;23.298;2023-12-29T06:31:10;95425.47;;;1.73;80.16
10688;BME280;5392;42.688;23.298;2023-12-29T06:33:36;95430.28;;;2.14;82.47
10688;BME280;5392;42.688;23.298;2023-12-29T06:36:02;95432.50;;;2.56;80.14
10688;BME280;5392;42.688;23.298;2023-12-29T06:38:28;95425.00;;;3.01;76.16
10688;BME280;5392;42.688;23.298;2023-12-29T06:40:53;95420.03;;;3.26;72.94
10688;BME280;5392;42.688;23.298;2023-12-29T06:43:19;95422.16;;;3.58;71.48
10688;BME280;5392;42.688;23.298;2023-12-29T06:45:44;95428.50;;;3.89;70.35
10688;BME280;5392;42.688;23.298;2023-12-29T06:48:10;95419.25;;;4.49;68.16
10688;BME280;5392;42.688;23.298;2023-12-29T06:50:36;95422.75;;;4.99;65.48
10688;BME280;5392;42.688;23.298;2023-12-29T06:53:03;95422.00;;;5.49;63.90
10688;BME280;5392;42.688;23.298;2023-12-29T06:55:28;95421.81;;;6.00;61.89
10688;BME280;5392;42.688;23.298;2023-12-29T06:57:54;95433.50;;;6.35;58.92
10688;BME280;5392;42.688;23.298;2023-12-29T07:00:19;95434.78;;;6.39;58.78
10688;BME280;5392;42.688;23.298;2023-12-29T07:02:45;95431.25;;;6.64;57.62
10688;BME280;5392;42.688;23.298;2023-12-29T07:05:10;95425.25;;;6.96;56.32
10688;BME280;5392;42.688;23.298;2023-12-29T07:07:36;95426.75;;;7.29;54.90
10688;BME280;5392;42.688;23.298;2023-12-29T07:10:03;95421.72;;;7.44;54.68
10688;BME280;5392;42.688;23.298;2023-12-29T07:12:29;95418.13;;;8.14;54.76
10688;BME280;5392;42.688;23.298;2023-12-29T07:14:54;95424.13;;;8.66;51.70
10688;BME280;5392;42.688;23.298;2023-12-29T07:17:20;95420.88;;;9.31;51.43
10688;BME280;5392;42.688;23.298;2023-12-29T07:19:45;95422.06;;;9.79;47.17
10688;BME280;5392;42.688;23.298;2023-12-29T07:22:11;95420.84;;;9.96;47.81
10688;BME280;5392;42.688;23.298;2023-12-29T07:24:36;95416.97;;;10.42;46.09
10688;BME280;5392;42.688;23.298;2023-12-29T07:27:02;95414.03;;;11.00;45.46
10688;BME280;5392;42.688;23.298;2023-12-29T07:29:28;95394.94;;;11.29;43.63
10688;BME280;5392;42.688;23.298;2023-12-29T07:31:53;95387.13;;;11.57;43.26
10688;BME280;5392;42.688;23.298;2023-12-29T07:34:20;95394.16;;;11.29;44.05
10688;BME280;5392;42.688;23.298;2023-12-29T07:36:46;95398.53;;;11.76;43.67
10688;BME280;5392;42.688;23.298;2023-12-29T07:39:11;95399.81;;;12.19;42.42
10688;BME280;5392;42.688;23.298;2023-12-29T07:41:41;95401.81;;;12.30;42.05
10688;BME280;5392;42.688;23.298;2023-12-29T07:44:12;95397.66;;;12.55;41.79
10688;BME280;5392;42.688;23.298;2023-12-29T07:46:40;95402.41;;;12.25;41.70
10688;BME280;5392;42.688;23.298;2023-12-29T07:49:06;95412.16;;;10.60;45.25
10688;BME280;5392;42.688;23.298;2023-12-29T07:51:31;95419.16;;;8.65;49.86
10688;BME280;5392;42.688;23.298;2023-12-29T07:53:57;95419.47;;;7.02;54.85
10688;BME280;5392;42.688;23.298;2023-12-29T07:56:23;95424.84;;;6.28;57.91
10688;BME280;5392;42.688;23.298;2023-12-29T07:58:48;95431.59;;;5.55;60.97
10688;BME280;5392;42.688;23.298;2023-12-29T08:01:14;95438.09;;;4.99;62.35
10688;BME280;5392;42.688;23.298;2023-12-29T08:03:39;95428.03;;;4.72;63.69
10688;BME280;5392;42.688;23.298;2023-12-29T08:06:05;95428.00;;;4.47;65.23
10688;BME280;5392;42.688;23.298;2023-12-29T08:08:30;95426.44;;;4.28;65.85
10688;BME280;5392;42.688;23.298;2023-12-29T08:10:56;95425.22;;;3.61;66.17
10688;BME280;5392;42.688;23.298;2023-12-29T08:13:21;95434.72;;;3.15;67.08
10688;BME280;5392;42.688;23.298;2023-12-29T08:15:47;95435.63;;;2.86;69.06
10688;BME280;5392;42.688;23.298;2023-12-29T08:18:12;95436.75;;;2.74;68.69
10688;BME280;5392;42.688;23.298;2023-12-29T08:20:38;95430.56;;;2.77;69.11
10688;BME280;5392;42.688;23.298;2023-12-29T08:23:03;95431.38;;;2.77;68.79
10688;BME280;5392;42.688;23.298;2023-12-29T08:25:29;95435.88;;;2.47;70.28
10688;BME280;5392;42.688;23.298;2023-12-29T08:27:58;95436.94;;;2.54;70.57
10688;BME280;5392;42.688;23.298;2023-12-29T08:30:23;95437.88;;;2.53;70.36
10688;BME280;5392;42.688;23.298;2023-12-29T08:32:49;95440.44;;;2.43;70.71
10688;BME280;5392;42.688;23.298;2023-12-29T08:35:14;95435.34;;;2.43;70.02
10688;BME280;5392;42.688;23.298;2023-12-29T08:37:40;95431.72;;;2.46;71.03
10688;BME280;5392;42.688;23.298;2023-12-29T08:40:06;95436.78;;;2.65;70.33
10688;BME280;5392;42.688;23.298;2023-12-29T08:42:32;95432.84;;;2.80;70.61
10688;BME280;5392;42.688;23.298;2023-12-29T08:44:59;95434.56;;;2.89;69.87
10688;BME280;5392;42.688;23.298;2023-12-29T08:47:25;95438.53;;;3.01;70.20
10688;BME280;5392;42.688;23.298;2023-12-29T08:49:50;95435.66;;;3.14;69.91
10688;BME280;5392;42.688;23.298;2023-12-29T08:52:16;95433.97;;;3.32;68.74
10688;BME280;5392;42.688;23.298;2023-12-29T08:54:42;95432.03;;;3.43;68.66
10688;BME280;5392;42.688;23.298;2023-12-29T08:57:07;95440.38;;;3.63;68.65
10688;BME280;5392;42.688;23.298;2023-12-29T08:59:33;95437.19;;;3.79;68.47
10688;BME280;5392;42.688;23.298;2023-12-29T09:01:58;95438.56;;;3.91;68.02
10688;BME280;5392;42.688;23.298;2023-12-29T09:04:25;95438.78;;;3.97;67.94
10688;BME280;5392;42.688;23.298;2023-12-29T09:06:50;95447.97;;;4.08;67.67
10688;BME280;5392;42.688;23.298;2023-12-29T09:09:16;95445.31;;;4.17;67.48
10688;BME280;5392;42.688;23.298;2023-12-29T09:11:42;95438.41;;;4.27;66.75
10688;BME280;5392;42.688;23.298;2023-12-29T09:14:07;95435.13;;;4.35;66.68
10688;BME280;5392;42.688;23.298;2023-12-29T09:16:35;95437.41;;;4.03;68.18
10688;BME280;5392;42.688;23.298;2023-12-29T09:19:01;95432.84;;;4.32;67.84
10688;BME280;5392;42.688;23.298;2023-12-29T09:21:26;95423.16;;;4.61;66.79
10688;BME280;5392;42.688;23.298;2023-12-29T09:23:52;95418.16;;;4.77;66.33
10688;BME280;5392;42.688;23.298;2023-12-29T09:26:18;95409.78;;;4.93;66.11
10688;BME280;5392;42.688;23.298;2023-12-29T09:28:43;95407.09;;;5.02;65.10
10688;BME280;5392;42.688;23.298;2023-12-29T09:31:10;95403.84;;;5.26;65.50
10688;BME280;5392;42.688;23.298;2023-12-29T09:33:35;95402.47;;;5.48;64.41
10688;BME280;5392;42.688;23.298;2023-12-29T09:36:02;95401.84;;;5.54;64.10
10688;BME280;5392;42.688;23.298;2023-12-29T09:38:27;95405.22;;;5.54;63.80
10688;BME280;5392;42.688;23.298;2023-12-29T09:40:54;95402.22;;;5.75;63.87
10688;BME280;5392;42.688;23.298;2023-12-29T09:43:22;95394.34;;;5.52;64.26
10688;BME280;5392;42.688;23.298;2023-12-29T09:45:48;95398.06;;;5.58;63.00
10688;BME280;5392;42.688;23.298;2023-12-29T09:48:16;95402.03;;;5.52;64.04
10688;BME280;5392;42.688;23.298;2023-12-29T09:50:44;95394.19;;;5.54;62.88
10688;BME280;5392;42.688;23.298;2023-12-29T09:53:10;95391.91;;;5.43;63.98
10688;BME280;5392;42.688;23.298;2023-12-29T09:55:38;95394.03;;;5.55;63.57
10688;BME280;5392;42.688;23.298;2023-12-29T09:58:04;95383.78;;;5.47;63.90
10688;BME280;5392;42.688;23.298;2023-12-29T10:00:33;95383.81;;;5.63;63.45
10688;BME280;5392;42.688;23.298;2023-12-29T10:03:00;95374.06;;;5.67;63.05
10688;BME280;5392;42.688;23.298;2023-12-29T10:05:26;95375.34;;;5.55;63.65
10688;BME280;5392;42.688;23.298;2023-12-29T10:07:52;95369.91;;;5.74;63.09
10688;BME280;5392;42.688;23.298;2023-12-29T10:10:20;95367.91;;;5.85;62.32
10688;BME280;5392;42.688;23.298;2023-12-29T10:12:48;95369.94;;;5.82;62.68
10688;BME280;5392;42.688;23.298;2023-12-29T10:15:26;95350.91;;;5.68;63.08
10688;BME280;5392;42.688;23.298;2023-12-29T10:18:10;95347.53;;;5.68;63.35
10688;BME280;5392;42.688;23.298;2023-12-29T10:23:43;95347.44;;;6.02;62.52
10688;BME280;5392;42.688;23.298;2023-12-29T10:26:11;95330.78;;;6.22;62.07
10688;BME280;5392;42.688;23.298;2023-12-29T10:28:37;95317.16;;;6.37;61.65
10688;BME280;5392;42.688;23.298;2023-12-29T10:31:04;95321.91;;;6.56;60.62
10688;BME280;5392;42.688;23.298;2023-12-29T10:33:30;95321.53;;;6.76;59.92
10688;BME280;5392;42.688;23.298;2023-12-29T10:35:58;95317.69;;;6.80;59.83
10688;BME280;5392;42.688;23.298;2023-12-29T10:38:32;95310.25;;;6.93;59.33
10688;BME280;5392;42.688;23.298;2023-12-29T10:41:18;95301.56;;;7.02;59.98
10688;BME280;5392;42.688;23.298;2023-12-29T10:43:45;95302.00;;;7.13;59.35
10688;BME280;5392;42.688;23.298;2023-12-29T10:46:18;95290.44;;;7.17;59.64
10688;BME280;5392;42.688;23.298;2023-12-29T10:48:45;95287.41;;;7.36;58.83
10688;BME280;5392;42.688;23.298;2023-12-29T10:51:10;95286.91;;;7.41;58.63
10688;BME280;5392;42.688;23.298;2023-12-29T10:53:37;95281.53;;;7.36;58.63
10688;BME280;5392;42.688;23.298;2023-12-29T10:56:03;95280.63;;;7.52;58.54
10688;BME280;5392;42.688;23.298;2023-12-29T10:58:29;95273.94;;;7.65;58.18
10688;BME280;5392;42.688;23.298;2023-12-29T11:00:56;95270.34;;;7.74;57.58
10688;BME280;5392;42.688;23.298;2023-12-29T11:03:23;95270.06;;;7.69;57.22
10688;BME280;5392;42.688;23.298;2023-12-29T11:05:49;95263.50;;;7.67;57.63
10688;BME280;5392;42.688;23.298;2023-12-29T11:08:19;95256.25;;;7.70;57.45
10688;BME280;5392;42.688;23.298;2023-12-29T11:10:49;95262.28;;;7.77;57.08
10688;BME280;5392;42.688;23.298;2023-12-29T11:13:15;95252.13;;;7.84;57.43
10688;BME280;5392;42.688;23.298;2023-12-29T11:15:42;95256.56;;;7.90;57.56
10688;BME280;5392;42.688;23.298;2023-12-29T11:18:18;95246.78;;;7.71;58.04
10688;BME280;5392;42.688;23.298;2023-12-29T11:20:44;95246.66;;;7.87;57.76
10688;BME280;5392;42.688;23.298;2023-12-29T11:23:12;95245.38;;;8.05;56.57
10688;BME280;5392;42.688;23.298;2023-12-29T11:25:44;95243.75;;;8.04;57.07
10688;BME280;5392;42.688;23.298;2023-12-29T11:28:11;95249.44;;;8.15;56.65
10688;BME280;5392;42.688;23.298;2023-12-29T11:30:39;95241.19;;;8.04;56.88
10688;BME280;5392;42.688;23.298;2023-12-29T11:33:12;95243.66;;;8.13;56.15
10688;BME280;5392;42.688;23.298;2023-12-29T11:40:45;95231.00;;;7.96;57.28
10688;BME280;5392;42.688;23.298;2023-12-29T11:43:16;95230.00;;;7.83;57.93
10688;BME280;5392;42.688;23.298;2023-12-29T11:45:43;95234.63;;;8.02;58.25
10688;BME280;5392;42.688;23.298;2023-12-29T11:48:09;95227.81;;;8.09;57.92
10688;BME280;5392;42.688;23.298;2023-12-29T11:50:38;95224.63;;;8.22;56.84
10688;BME280;5392;42.688;23.298;2023-12-29T11:53:07;95221.09;;;8.23;57.01
10688;BME280;5392;42.688;23.298;2023-12-29T11:55:36;95229.19;;;8.34;57.18
10688;BME280;5392;42.688;23.298;2023-12-29T11:58:22;95226.34;;;8.58;56.44
10688;BME280;5392;42.688;23.298;2023-12-29T12:00:47;95220.13;;;8.67;56.41
10688;BME280;5392;42.688;23.298;2023-12-29T12:03:27;95219.41;;;8.73;56.49
10688;BME280;5392;42.688;23.298;2023-12-29T12:05:54;95205.47;;;8.82;55.39
10688;BME280;5392;42.688;23.298;2023-12-29T12:10:58;95199.81;;;8.87;56.63
10688;BME280;5392;42.688;23.298;2023-12-29T12:13:46;95200.75;;;8.86;55.48
10688;BME280;5392;42.688;23.298;2023-12-29T12:19:11;95197.69;;;9.33;54.14
10688;BME280;5392;42.688;23.298;2023-12-29T12:21:37;95193.59;;;9.38;54.73
10688;BME280;5392;42.688;23.298;2023-12-29T12:24:06;95199.66;;;9.52;54.16
10688;BME280;5392;42.688;23.298;2023-12-29T12:26:33;95208.09;;;9.67;54.02
10688;BME280;5392;42.688;23.298;2023-12-29T12:28:59;95201.81;;;9.76;54.05
10688;BME280;5392;42.688;23.298;2023-12-29T12:31:25;95199.69;;;9.80;54.33
10688;BME280;5392;42.688;23.298;2023-12-29T12:33:56;95201.31;;;9.87;53.51
10688;BME280;5392;42.688;23.298;2023-12-29T12:36:23;95203.50;;;9.90;52.32
10688;BME280;5392;42.688;23.298;2023-12-29T12:38:53;95208.50;;;9.98;53.21
10688;BME280;5392;42.688;23.298;2023-12-29T12:41:25;95213.72;;;10.05;53.44
10688;BME280;5392;42.688;23.298;2023-12-29T12:46:34;95193.16;;;10.11;53.12
10688;BME280;5392;42.688;23.298;2023-12-29T12:49:03;95194.63;;;10.20;52.46
10688;BME280;5392;42.688;23.298;2023-12-29T12:51:31;95196.63;;;10.25;52.09
10688;BME280;5392;42.688;23.298;2023-12-29T12:53:57;95194.84;;;10.25;52.51
10688;BME280;5392;42.688;23.298;2023-12-29T12:56:23;95196.91;;;10.37;51.40
10688;BME280;5392;42.688;23.298;2023-12-29T12:58:56;95197.28;;;10.40;52.06
10688;BME280;5392;42.688;23.298;2023-12-29T13:01:22;95191.38;;;10.40;52.77
10688;BME280;5392;42.688;23.298;2023-12-29T13:03:47;95195.16;;;10.44;52.64
10688;BME280;5392;42.688;23.298;2023-12-29T13:06:13;95196.38;;;10.54;51.09
10688;BME280;5392;42.688;23.298;2023-12-29T13:08:39;95189.47;;;10.61;50.83
10688;BME280;5392;42.688;23.298;2023-12-29T13:11:05;95192.28;;;10.66;50.75
10688;BME280;5392;42.688;23.298;2023-12-29T13:13:42;95207.19;;;10.71;51.65
10688;BME280;5392;42.688;23.298;2023-12-29T13:16:08;95198.66;;;10.77;51.70
10688;BME280;5392;42.688;23.298;2023-12-29T13:18:34;95187.75;;;10.75;51.92
10688;BME280;5392;42.688;23.298;2023-12-29T13:21:03;95191.75;;;10.84;51.18
10688;BME280;5392;42.688;23.298;2023-12-29T13:23:29;95191.91;;;10.82;51.68
10688;BME280;5392;42.688;23.298;2023-12-29T13:25:57;95181.59;;;10.82;51.64
10688;BME280;5392;42.688;23.298;2023-12-29T13:28:25;95186.19;;;10.87;51.08